sensor_id;sensor_type;location;lat;lon;timestamp;temperature;humidity
35381;DHT22;21486;51.916;8.378;2023-05-07T00:02:14;14.90;99.90
35381;DHT22;21486;51.916;8.378;2023-05-07T00:04:40;14.80;99.90
35381;DHT22;21486;51.916;8.378;2023-05-07T00:07:06;14.80;99.90
35381;DHT22;21486;51.916;8.378;2023-05-07T00:09:31;14.90;99.70
35381;DHT22;21486;51.916;8.378;2023-05-07T00:11:56;14.90;99.40
35381;DHT22;21486;51.916;8.378;2023-05-07T00:14:22;15.00;99.00
35381;DHT22;21486;51.916;8.378;2023-05-07T00:16:47;14.90;99.00
35381;DHT22;21486;51.916;8.378;2023-05-07T00:19:13;14.90;98.80
35381;DHT22;21486;51.916;8.378;2023-05-07T00:21:38;15.00;99.10
35381;DHT22;21486;51.916;8.378;2023-05-07T00:24:04;14.90;99.00
35381;DHT22;21486;51.916;8.378;2023-05-07T00:26:29;14.90;99.10
35381;DHT22;21486;51.916;8.378;2023-05-07T00:28:55;14.90;99.00
35381;DHT22;21486;51.916;8.378;2023-05-07T00:33:02;14.90;98.90
35381;DHT22;21486;51.916;8.378;2023-05-07T00:35:28;14.90;99.40
35381;DHT22;21486;51.916;8.378;2023-05-07T00:37:55;14.90;99.70
35381;DHT22;21486;51.916;8.378;2023-05-07T00:40:20;14.80;99.30
35381;DHT22;21486;51.916;8.378;2023-05-07T00:42:46;14.80;99.60
35381;DHT22;21486;51.916;8.378;2023-05-07T00:45:15;14.70;99.30
35381;DHT22;21486;51.916;8.378;2023-05-07T00:47:42;14.70;99.40
35381;DHT22;21486;51.916;8.378;2023-05-07T00:50:09;14.70;99.30
35381;DHT22;21486;51.916;8.378;2023-05-07T00:52:38;14.70;99.50
35381;DHT22;21486;51.916;8.378;2023-05-07T00:55:05;14.70;99.60
35381;DHT22;21486;51.916;8.378;2023-05-07T00:57:40;14.70;99.50
35381;DHT22;21486;51.916;8.378;2023-05-07T01:00:06;14.70;99.40
35381;DHT22;21486;51.916;8.378;2023-05-07T01:02:36;14.70;99.40
35381;DHT22;21486;51.916;8.378;2023-05-07T01:05:03;14.70;99.60
35381;DHT22;21486;51.916;8.378;2023-05-07T01:07:32;14.70;99.90
35381;DHT22;21486;51.916;8.378;2023-05-07T01:09:58;14.70;99.50
35381;DHT22;21486;51.916;8.378;2023-05-07T01:12:24;14.60;99.60
35381;DHT22;21486;51.916;8.378;2023-05-07T01:14:50;14.60;99.70
35381;DHT22;21486;51.916;8.378;2023-05-07T01:17:16;14.60;99.50
35381;DHT22;21486;51.916;8.378;2023-05-07T01:19:42;14.50;99.70
35381;DHT22;21486;51.916;8.378;2023-05-07T01:22:09;14.50;99.70
35381;DHT22;21486;51.916;8.378;2023-05-07T01:24:37;14.60;99.80
35381;DHT22;21486;51.916;8.378;2023-05-07T01:27:03;14.60;99.90
35381;DHT22;21486;51.916;8.378;2023-05-07T01:29:28;14.50;99.90
35381;DHT22;21486;51.916;8.378;2023-05-07T01:31:59;14.50;99.90
35381;DHT22;21486;51.916;8.378;2023-05-07T01:34:26;14.50;99.90
35381;DHT22;21486;51.916;8.378;2023-05-07T01:36:54;14.40;99.90
35381;DHT22;21486;51.916;8.378;2023-05-07T01:39:22;14.40;99.90
35381;DHT22;21486;51.916;8.378;2023-05-07T01:41:48;14.30;99.90
35381;DHT22;21486;51.916;8.378;2023-05-07T01:44:14;14.40;99.90
35381;DHT22;21486;51.916;8.378;2023-05-07T01:46:40;14.30;99.90
35381;DHT22;21486;51.916;8.378;2023-05-07T01:49:06;14.30;99.90
35381;DHT22;21486;51.916;8.378;2023-05-07T01:51:31;14.30;99.90
35381;DHT22;21486;51.916;8.378;2023-05-07T01:53:58;14.40;99.90
35381;DHT22;21486;51.916;8.378;2023-05-07T01:56:25;14.30;99.90
35381;DHT22;21486;51.916;8.378;2023-05-07T01:58:51;14.20;99.90
35381;DHT22;21486;51.916;8.378;2023-05-07T02:01:17;14.00;99.90
35381;DHT22;21486;51.916;8.378;2023-05-07T02:03:43;14.10;99.90
35381;DHT22;21486;51.916;8.378;2023-05-07T02:06:09;14.00;99.90
35381;DHT22;21486;51.916;8.378;2023-05-07T02:08:35;14.00;99.90
35381;DHT22;21486;51.916;8.378;2023-05-07T02:11:00;14.00;99.90
35381;DHT22;21486;51.916;8.378;2023-05-07T02:13:32;14.00;99.90
35381;DHT22;21486;51.916;8.378;2023-05-07T02:15:58;14.00;99.90
35381;DHT22;21486;51.916;8.378;2023-05-07T02:18:23;13.90;99.90
35381;DHT22;21486;51.916;8.378;2023-05-07T02:20:49;13.90;99.90
35381;DHT22;21486;51.916;8.378;2023-05-07T02:23:14;13.80;99.90
35381;DHT22;21486;51.916;8.378;2023-05-07T02:25:40;13.80;99.90
35381;DHT22;21486;51.916;8.378;2023-05-07T02:28:05;13.70;99.90
35381;DHT22;21486;51.916;8.378;2023-05-07T02:30:31;13.70;99.90
35381;DHT22;21486;51.916;8.378;2023-05-07T02:32:57;13.70;99.90
35381;DHT22;21486;51.916;8.378;2023-05-07T02:35:24;13.60;99.90
35381;DHT22;21486;51.916;8.378;2023-05-07T02:37:50;13.60;99.90
35381;DHT22;21486;51.916;8.378;2023-05-07T02:40:15;13.60;99.90
35381;DHT22;21486;51.916;8.378;2023-05-07T02:42:41;13.70;99.90
35381;DHT22;21486;51.916;8.378;2023-05-07T02:47:34;13.60;99.90
35381;DHT22;21486;51.916;8.378;2023-05-07T02:50:00;13.60;99.90
35381;DHT22;21486;51.916;8.378;2023-05-07T02:52:25;13.50;99.90
35381;DHT22;21486;51.916;8.378;2023-05-07T02:54:51;13.40;99.90
35381;DHT22;21486;51.916;8.378;2023-05-07T02:57:16;13.40;99.90
35381;DHT22;21486;51.916;8.378;2023-05-07T02:59:42;13.40;99.90
35381;DHT22;21486;51.916;8.378;2023-05-07T03:02:08;13.50;99.90
35381;DHT22;21486;51.916;8.378;2023-05-07T03:04:34;13.50;99.90
35381;DHT22;21486;51.916;8.378;2023-05-07T03:06:59;13.40;99.90
35381;DHT22;21486;51.916;8.378;2023-05-07T03:09:25;13.40;99.90
35381;DHT22;21486;51.916;8.378;2023-05-07T03:11:51;13.40;99.90
35381;DHT22;21486;51.916;8.378;2023-05-07T03:14:16;13.40;99.90
35381;DHT22;21486;51.916;8.378;2023-05-07T03:16:42;13.40;99.90
35381;DHT22;21486;51.916;8.378;2023-05-07T03:19:07;13.40;99.90
35381;DHT22;21486;51.916;8.378;2023-05-07T03:21:33;13.40;99.90
35381;DHT22;21486;51.916;8.378;2023-05-07T03:23:59;13.30;99.90
35381;DHT22;21486;51.916;8.378;2023-05-07T03:26:25;13.20;99.90
35381;DHT22;21486;51.916;8.378;2023-05-07T03:28:51;13.30;99.90
35381;DHT22;21486;51.916;8.378;2023-05-07T03:31:17;13.30;99.90
35381;DHT22;21486;51.916;8.378;2023-05-07T03:33:56;13.40;99.90
35381;DHT22;21486;51.916;8.378;2023-05-07T03:36:22;13.30;99.90
35381;DHT22;21486;51.916;8.378;2023-05-07T03:38:49;13.30;99.90
35381;DHT22;21486;51.916;8.378;2023-05-07T03:41:15;13.20;99.90
35381;DHT22;21486;51.916;8.378;2023-05-07T03:43:40;13.20;99.90
35381;DHT22;21486;51.916;8.378;2023-05-07T03:46:06;13.20;99.90
35381;DHT22;21486;51.916;8.378;2023-05-07T03:48:32;13.20;99.90
35381;DHT22;21486;51.916;8.378;2023-05-07T03:50:58;13.20;99.90
35381;DHT22;21486;51.916;8.378;2023-05-07T03:53:23;13.20;99.90
35381;DHT22;21486;51.916;8.378;2023-05-07T03:55:49;13.20;99.90
35381;DHT22;21486;51.916;8.378;2023-05-07T03:58:15;13.20;99.90
35381;DHT22;21486;51.916;8.378;2023-05-07T04:00:40;13.20;99.90
35381;DHT22;21486;51.916;8.378;2023-05-07T04:03:06;13.10;99.90
35381;DHT22;21486;51.916;8.378;2023-05-07T04:05:32;13.20;99.90
35381;DHT22;21486;51.916;8.378;2023-05-07T04:08:01;13.20;99.90
35381;DHT22;21486;51.916;8.378;2023-05-07T04:10:28;13.20;99.90
35381;DHT22;21486;51.916;8.378;2023-05-07T04:12:54;13.20;99.90
35381;DHT22;21486;51.916;8.378;2023-05-07T04:15:20;13.30;99.90
35381;DHT22;21486;51.916;8.378;2023-05-07T04:17:45;13.30;99.90
35381;DHT22;21486;51.916;8.378;2023-05-07T04:20:15;13.30;99.90
35381;DHT22;21486;51.916;8.378;2023-05-07T04:22:41;13.30;99.90
35381;DHT22;21486;51.916;8.378;2023-05-07T04:25:08;13.20;99.90
35381;DHT22;21486;51.916;8.378;2023-05-07T04:27:37;13.20;99.90
35381;DHT22;21486;51.916;8.378;2023-05-07T04:30:03;13.20;99.90
35381;DHT22;21486;51.916;8.378;2023-05-07T04:32:29;13.30;99.90
35381;DHT22;21486;51.916;8.378;2023-05-07T04:34:56;13.30;99.90
35381;DHT22;21486;51.916;8.378;2023-05-07T04:37:22;13.30;99.90
35381;DHT22;21486;51.916;8.378;2023-05-07T04:39:48;13.30;99.90
35381;DHT22;21486;51.916;8.378;2023-05-07T04:42:17;13.30;99.90
35381;DHT22;21486;51.916;8.378;2023-05-07T04:44:44;13.30;99.90
35381;DHT22;21486;51.916;8.378;2023-05-07T04:47:10;13.30;99.90
35381;DHT22;21486;51.916;8.378;2023-05-07T04:49:36;13.30;99.90
35381;DHT22;21486;51.916;8.378;2023-05-07T04:52:02;13.30;99.90
35381;DHT22;21486;51.916;8.378;2023-05-07T04:54:28;13.30;99.90
35381;DHT22;21486;51.916;8.378;2023-05-07T04:56:54;13.20;99.90
35381;DHT22;21486;51.916;8.378;2023-05-07T04:59:20;13.20;99.90
35381;DHT22;21486;51.916;8.378;2023-05-07T05:01:46;13.30;99.90
35381;DHT22;21486;51.916;8.378;2023-05-07T05:04:11;13.30;99.90
35381;DHT22;21486;51.916;8.378;2023-05-07T05:06:37;13.40;99.90
35381;DHT22;21486;51.916;8.378;2023-05-07T05:09:02;13.40;99.90
35381;DHT22;21486;51.916;8.378;2023-05-07T05:11:28;13.40;99.90
35381;DHT22;21486;51.916;8.378;2023-05-07T05:13:54;13.40;99.90
35381;DHT22;21486;51.916;8.378;2023-05-07T05:16:19;13.50;99.90
35381;DHT22;21486;51.916;8.378;2023-05-07T05:18:45;13.60;99.90
35381;DHT22;21486;51.916;8.378;2023-05-07T05:21:10;13.70;99.90
35381;DHT22;21486;51.916;8.378;2023-05-07T05:23:36;13.80;99.90
35381;DHT22;21486;51.916;8.378;2023-05-07T05:26:01;13.70;99.90
35381;DHT22;21486;51.916;8.378;2023-05-07T05:28:27;13.80;99.90
35381;DHT22;21486;51.916;8.378;2023-05-07T05:30:53;13.80;99.30
35381;DHT22;21486;51.916;8.378;2023-05-07T05:33:19;14.00;99.00
35381;DHT22;21486;51.916;8.378;2023-05-07T05:35:45;14.00;98.80
35381;DHT22;21486;51.916;8.378;2023-05-07T05:38:10;14.00;98.80
35381;DHT22;21486;51.916;8.378;2023-05-07T05:40:36;14.00;98.50
35381;DHT22;21486;51.916;8.378;2023-05-07T05:43:01;14.00;98.40
35381;DHT22;21486;51.916;8.378;2023-05-07T05:45:27;13.90;98.40
35381;DHT22;21486;51.916;8.378;2023-05-07T05:47:52;14.00;98.30
35381;DHT22;21486;51.916;8.378;2023-05-07T05:50:18;14.00;98.30
35381;DHT22;21486;51.916;8.378;2023-05-07T05:52:43;14.10;97.40
35381;DHT22;21486;51.916;8.378;2023-05-07T05:55:09;14.20;97.40
35381;DHT22;21486;51.916;8.378;2023-05-07T05:57:35;14.40;96.90
35381;DHT22;21486;51.916;8.378;2023-05-07T06:00:01;14.50;96.30
35381;DHT22;21486;51.916;8.378;2023-05-07T06:02:28;14.50;96.20
35381;DHT22;21486;51.916;8.378;2023-05-07T06:04:53;14.60;95.50
35381;DHT22;21486;51.916;8.378;2023-05-07T06:07:19;14.50;95.40
35381;DHT22;21486;51.916;8.378;2023-05-07T06:09:44;14.40;95.80
35381;DHT22;21486;51.916;8.378;2023-05-07T06:12:10;14.30;96.20
35381;DHT22;21486;51.916;8.378;2023-05-07T06:14:35;14.40;95.80
35381;DHT22;21486;51.916;8.378;2023-05-07T06:17:01;14.30;96.00
35381;DHT22;21486;51.916;8.378;2023-05-07T06:19:26;14.30;96.20
35381;DHT22;21486;51.916;8.378;2023-05-07T06:21:53;14.20;96.20
35381;DHT22;21486;51.916;8.378;2023-05-07T06:24:19;14.20;96.60
35381;DHT22;21486;51.916;8.378;2023-05-07T06:26:44;14.20;96.20
35381;DHT22;21486;51.916;8.378;2023-05-07T06:29:10;14.30;96.00
35381;DHT22;21486;51.916;8.378;2023-05-07T06:31:35;14.30;95.60
35381;DHT22;21486;51.916;8.378;2023-05-07T06:34:01;14.20;95.70
35381;DHT22;21486;51.916;8.378;2023-05-07T06:36:28;14.30;95.70
35381;DHT22;21486;51.916;8.378;2023-05-07T06:38:53;14.50;95.20
35381;DHT22;21486;51.916;8.378;2023-05-07T06:41:19;14.50;95.30
35381;DHT22;21486;51.916;8.378;2023-05-07T06:43:45;14.50;95.50
35381;DHT22;21486;51.916;8.378;2023-05-07T06:46:11;14.70;95.00
35381;DHT22;21486;51.916;8.378;2023-05-07T06:48:36;14.90;93.90
35381;DHT22;21486;51.916;8.378;2023-05-07T06:51:02;15.10;93.30
35381;DHT22;21486;51.916;8.378;2023-05-07T06:53:28;15.30;92.40
35381;DHT22;21486;51.916;8.378;2023-05-07T06:55:54;15.60;92.10
35381;DHT22;21486;51.916;8.378;2023-05-07T06:58:20;15.70;91.40
35381;DHT22;21486;51.916;8.378;2023-05-07T07:00:45;15.80;90.90
35381;DHT22;21486;51.916;8.378;2023-05-07T07:03:11;15.90;90.60
35381;DHT22;21486;51.916;8.378;2023-05-07T07:05:37;16.00;89.70
35381;DHT22;21486;51.916;8.378;2023-05-07T07:08:02;16.10;89.20
35381;DHT22;21486;51.916;8.378;2023-05-07T07:10:28;15.90;89.70
35381;DHT22;21486;51.916;8.378;2023-05-07T07:12:53;15.40;90.70
35381;DHT22;21486;51.916;8.378;2023-05-07T07:15:19;15.10;91.90
35381;DHT22;21486;51.916;8.378;2023-05-07T07:17:46;15.20;91.50
35381;DHT22;21486;51.916;8.378;2023-05-07T07:20:11;15.10;91.40
35381;DHT22;21486;51.916;8.378;2023-05-07T07:22:37;14.80;92.00
35381;DHT22;21486;51.916;8.378;2023-05-07T07:25:03;14.80;92.50
35381;DHT22;21486;51.916;8.378;2023-05-07T07:27:28;14.90;91.80
35381;DHT22;21486;51.916;8.378;2023-05-07T07:29:54;14.90;92.20
35381;DHT22;21486;51.916;8.378;2023-05-07T07:32:20;14.90;92.20
35381;DHT22;21486;51.916;8.378;2023-05-07T07:34:45;14.90;92.10
35381;DHT22;21486;51.916;8.378;2023-05-07T07:37:11;14.90;92.50
35381;DHT22;21486;51.916;8.378;2023-05-07T07:39:36;15.00;92.30
35381;DHT22;21486;51.916;8.378;2023-05-07T07:42:06;15.20;92.00
35381;DHT22;21486;51.916;8.378;2023-05-07T07:44:31;15.10;91.60
35381;DHT22;21486;51.916;8.378;2023-05-07T07:46:57;15.00;92.30
35381;DHT22;21486;51.916;8.378;2023-05-07T07:49:23;15.00;92.20
35381;DHT22;21486;51.916;8.378;2023-05-07T07:51:48;15.30;92.30
35381;DHT22;21486;51.916;8.378;2023-05-07T07:54:14;15.30;92.30
35381;DHT22;21486;51.916;8.378;2023-05-07T07:56:39;15.30;92.00
35381;DHT22;21486;51.916;8.378;2023-05-07T07:59:05;15.40;91.40
35381;DHT22;21486;51.916;8.378;2023-05-07T08:01:31;15.40;91.00
35381;DHT22;21486;51.916;8.378;2023-05-07T08:03:56;15.20;91.40
35381;DHT22;21486;51.916;8.378;2023-05-07T08:06:24;15.20;91.50
35381;DHT22;21486;51.916;8.378;2023-05-07T08:08:51;15.40;91.30
35381;DHT22;21486;51.916;8.378;2023-05-07T08:11:16;15.60;90.70
35381;DHT22;21486;51.916;8.378;2023-05-07T08:13:42;15.80;90.10
35381;DHT22;21486;51.916;8.378;2023-05-07T08:16:08;15.80;90.20
35381;DHT22;21486;51.916;8.378;2023-05-07T08:18:33;15.70;89.80
35381;DHT22;21486;51.916;8.378;2023-05-07T08:20:59;16.00;89.70
35381;DHT22;21486;51.916;8.378;2023-05-07T08:23:25;16.10;89.00
35381;DHT22;21486;51.916;8.378;2023-05-07T08:25:51;16.30;87.50
35381;DHT22;21486;51.916;8.378;2023-05-07T08:28:17;16.20;87.80
35381;DHT22;21486;51.916;8.378;2023-05-07T08:30:42;16.50;87.10
35381;DHT22;21486;51.916;8.378;2023-05-07T08:33:09;16.70;85.90
35381;DHT22;21486;51.916;8.378;2023-05-07T08:35:35;16.80;84.50
35381;DHT22;21486;51.916;8.378;2023-05-07T08:38:00;16.80;84.20
35381;DHT22;21486;51.916;8.378;2023-05-07T08:40:26;16.90;83.80
35381;DHT22;21486;51.916;8.378;2023-05-07T08:42:53;17.30;82.40
35381;DHT22;21486;51.916;8.378;2023-05-07T08:45:20;17.20;81.20
35381;DHT22;21486;51.916;8.378;2023-05-07T08:47:58;17.10;82.90
35381;DHT22;21486;51.916;8.378;2023-05-07T08:50:24;17.30;82.00
35381;DHT22;21486;51.916;8.378;2023-05-07T08:52:50;17.30;81.40
35381;DHT22;21486;51.916;8.378;2023-05-07T08:55:16;17.30;82.70
35381;DHT22;21486;51.916;8.378;2023-05-07T08:57:42;17.00;81.20
35381;DHT22;21486;51.916;8.378;2023-05-07T09:00:08;16.90;82.60
35381;DHT22;21486;51.916;8.378;2023-05-07T09:02:36;17.70;80.90
35381;DHT22;21486;51.916;8.378;2023-05-07T09:05:02;18.40;77.90
35381;DHT22;21486;51.916;8.378;2023-05-07T09:07:28;19.30;74.50
35381;DHT22;21486;51.916;8.378;2023-05-07T09:09:55;19.60;71.80
35381;DHT22;21486;51.916;8.378;2023-05-07T09:12:22;19.80;70.70
35381;DHT22;21486;51.916;8.378;2023-05-07T09:14:48;19.70;69.80
35381;DHT22;21486;51.916;8.378;2023-05-07T09:17:16;19.50;69.80
35381;DHT22;21486;51.916;8.378;2023-05-07T09:19:46;20.00;70.90
35381;DHT22;21486;51.916;8.378;2023-05-07T09:22:12;20.20;69.10
35381;DHT22;21486;51.916;8.378;2023-05-07T09:24:38;20.80;66.40
35381;DHT22;21486;51.916;8.378;2023-05-07T09:27:04;20.80;64.80
35381;DHT22;21486;51.916;8.378;2023-05-07T09:29:31;20.60;65.80
35381;DHT22;21486;51.916;8.378;2023-05-07T09:32:05;20.70;65.80
35381;DHT22;21486;51.916;8.378;2023-05-07T09:34:31;21.00;64.00
35381;DHT22;21486;51.916;8.378;2023-05-07T09:37:00;20.50;65.80
35381;DHT22;21486;51.916;8.378;2023-05-07T09:39:26;20.60;65.50
35381;DHT22;21486;51.916;8.378;2023-05-07T09:41:51;20.30;66.90
35381;DHT22;21486;51.916;8.378;2023-05-07T09:44:20;20.30;66.90
35381;DHT22;21486;51.916;8.378;2023-05-07T09:46:49;20.70;65.00
35381;DHT22;21486;51.916;8.378;2023-05-07T09:49:22;20.40;65.60
35381;DHT22;21486;51.916;8.378;2023-05-07T09:51:49;20.70;64.80
35381;DHT22;21486;51.916;8.378;2023-05-07T09:54:16;20.60;65.20
35381;DHT22;21486;51.916;8.378;2023-05-07T09:56:44;20.00;66.60
35381;DHT22;21486;51.916;8.378;2023-05-07T09:59:14;20.00;67.60
35381;DHT22;21486;51.916;8.378;2023-05-07T10:01:41;20.00;67.80
35381;DHT22;21486;51.916;8.378;2023-05-07T10:04:08;19.90;67.50
35381;DHT22;21486;51.916;8.378;2023-05-07T10:06:34;20.70;66.10
35381;DHT22;21486;51.916;8.378;2023-05-07T10:09:01;20.90;64.70
35381;DHT22;21486;51.916;8.378;2023-05-07T10:11:27;20.80;65.50
35381;DHT22;21486;51.916;8.378;2023-05-07T10:13:53;21.20;64.00
35381;DHT22;21486;51.916;8.378;2023-05-07T10:16:20;19.70;65.90
35381;DHT22;21486;51.916;8.378;2023-05-07T10:18:47;19.90;67.30
35381;DHT22;21486;51.916;8.378;2023-05-07T10:21:18;20.30;66.70
35381;DHT22;21486;51.916;8.378;2023-05-07T10:24:05;20.50;64.80
35381;DHT22;21486;51.916;8.378;2023-05-07T10:26:32;20.30;65.40
35381;DHT22;21486;51.916;8.378;2023-05-07T10:29:03;20.60;65.90
35381;DHT22;21486;51.916;8.378;2023-05-07T10:33:59;20.40;65.20
35381;DHT22;21486;51.916;8.378;2023-05-07T10:36:25;20.40;66.30
35381;DHT22;21486;51.916;8.378;2023-05-07T10:38:52;20.80;65.40
35381;DHT22;21486;51.916;8.378;2023-05-07T10:41:17;21.00;64.50
35381;DHT22;21486;51.916;8.378;2023-05-07T10:43:44;20.70;64.20
35381;DHT22;21486;51.916;8.378;2023-05-07T10:46:11;20.80;64.30
35381;DHT22;21486;51.916;8.378;2023-05-07T10:51:32;20.60;65.70
35381;DHT22;21486;51.916;8.378;2023-05-07T10:56:40;20.40;65.60
35381;DHT22;21486;51.916;8.378;2023-05-07T11:01:57;20.90;64.80
35381;DHT22;21486;51.916;8.378;2023-05-07T11:04:23;20.70;65.30
35381;DHT22;21486;51.916;8.378;2023-05-07T11:12:16;21.20;65.20
35381;DHT22;21486;51.916;8.378;2023-05-07T11:17:08;21.70;62.80
35381;DHT22;21486;51.916;8.378;2023-05-07T11:19:54;21.10;64.00
35381;DHT22;21486;51.916;8.378;2023-05-07T11:22:46;21.50;62.50
35381;DHT22;21486;51.916;8.378;2023-05-07T11:25:18;21.50;63.50
35381;DHT22;21486;51.916;8.378;2023-05-07T11:27:47;21.90;62.60
35381;DHT22;21486;51.916;8.378;2023-05-07T11:30:19;22.00;62.40
35381;DHT22;21486;51.916;8.378;2023-05-07T11:32:47;21.90;62.20
35381;DHT22;21486;51.916;8.378;2023-05-07T11:35:14;21.90;60.60
35381;DHT22;21486;51.916;8.378;2023-05-07T11:37:40;21.80;60.70
35381;DHT22;21486;51.916;8.378;2023-05-07T11:40:08;21.30;63.30
35381;DHT22;21486;51.916;8.378;2023-05-07T11:42:35;21.90;61.40
35381;DHT22;21486;51.916;8.378;2023-05-07T11:45:03;21.90;61.30
35381;DHT22;21486;51.916;8.378;2023-05-07T11:47:32;22.40;60.30
35381;DHT22;21486;51.916;8.378;2023-05-07T11:50:03;22.50;60.00
35381;DHT22;21486;51.916;8.378;2023-05-07T11:52:29;22.50;59.30
35381;DHT22;21486;51.916;8.378;2023-05-07T11:54:58;22.90;59.80
35381;DHT22;21486;51.916;8.378;2023-05-07T11:57:25;23.30;58.50
35381;DHT22;21486;51.916;8.378;2023-05-07T11:59:58;22.90;58.30
35381;DHT22;21486;51.916;8.378;2023-05-07T12:02:24;22.10;60.00
35381;DHT22;21486;51.916;8.378;2023-05-07T12:04:53;22.40;60.40
35381;DHT22;21486;51.916;8.378;2023-05-07T12:07:19;22.40;59.30
35381;DHT22;21486;51.916;8.378;2023-05-07T12:09:45;21.50;62.60
35381;DHT22;21486;51.916;8.378;2023-05-07T12:12:11;21.80;61.20
35381;DHT22;21486;51.916;8.378;2023-05-07T12:14:46;21.20;61.40
35381;DHT22;21486;51.916;8.378;2023-05-07T12:17:12;20.60;64.60
35381;DHT22;21486;51.916;8.378;2023-05-07T12:19:40;21.00;63.20
35381;DHT22;21486;51.916;8.378;2023-05-07T12:22:10;21.50;62.00
35381;DHT22;21486;51.916;8.378;2023-05-07T12:24:49;21.80;62.60
35381;DHT22;21486;51.916;8.378;2023-05-07T12:27:16;21.20;62.10
35381;DHT22;21486;51.916;8.378;2023-05-07T12:29:46;20.90;64.30
35381;DHT22;21486;51.916;8.378;2023-05-07T12:32:16;21.10;63.50
35381;DHT22;21486;51.916;8.378;2023-05-07T12:34:42;21.50;64.20
35381;DHT22;21486;51.916;8.378;2023-05-07T12:37:08;21.60;61.80
35381;DHT22;21486;51.916;8.378;2023-05-07T12:39:33;21.60;62.90
35381;DHT22;21486;51.916;8.378;2023-05-07T12:41:59;21.20;62.70
35381;DHT22;21486;51.916;8.378;2023-05-07T12:44:29;21.00;63.20
35381;DHT22;21486;51.916;8.378;2023-05-07T12:46:55;20.90;63.90
35381;DHT22;21486;51.916;8.378;2023-05-07T12:49:21;21.00;64.30
35381;DHT22;21486;51.916;8.378;2023-05-07T12:51:47;21.20;62.40
35381;DHT22;21486;51.916;8.378;2023-05-07T12:54:13;20.90;63.10
35381;DHT22;21486;51.916;8.378;2023-05-07T12:56:39;20.90;64.40
35381;DHT22;21486;51.916;8.378;2023-05-07T12:59:05;20.90;64.70
35381;DHT22;21486;51.916;8.378;2023-05-07T13:01:31;21.00;63.50
35381;DHT22;21486;51.916;8.378;2023-05-07T13:04:00;20.90;62.90
35381;DHT22;21486;51.916;8.378;2023-05-07T13:06:26;21.00;64.90
35381;DHT22;21486;51.916;8.378;2023-05-07T13:08:52;21.00;63.50
35381;DHT22;21486;51.916;8.378;2023-05-07T13:11:18;21.00;63.70
35381;DHT22;21486;51.916;8.378;2023-05-07T13:13:43;21.00;65.10
35381;DHT22;21486;51.916;8.378;2023-05-07T13:16:10;21.00;63.80
35381;DHT22;21486;51.916;8.378;2023-05-07T13:18:37;21.30;63.40
35381;DHT22;21486;51.916;8.378;2023-05-07T13:21:03;21.20;63.50
35381;DHT22;21486;51.916;8.378;2023-05-07T13:23:29;21.30;63.20
35381;DHT22;21486;51.916;8.378;2023-05-07T13:25:55;21.30;62.50
35381;DHT22;21486;51.916;8.378;2023-05-07T13:28:21;21.00;63.40
35381;DHT22;21486;51.916;8.378;2023-05-07T13:30:47;21.00;64.40
35381;DHT22;21486;51.916;8.378;2023-05-07T13:33:13;20.90;64.70
35381;DHT22;21486;51.916;8.378;2023-05-07T13:35:40;20.90;63.70
35381;DHT22;21486;51.916;8.378;2023-05-07T13:38:05;20.50;65.20
35381;DHT22;21486;51.916;8.378;2023-05-07T13:40:31;20.70;64.60
35381;DHT22;21486;51.916;8.378;2023-05-07T13:42:58;20.30;65.30
35381;DHT22;21486;51.916;8.378;2023-05-07T13:45:24;20.40;65.40
35381;DHT22;21486;51.916;8.378;2023-05-07T13:47:51;20.50;66.10
35381;DHT22;21486;51.916;8.378;2023-05-07T13:50:17;20.70;65.70
35381;DHT22;21486;51.916;8.378;2023-05-07T13:52:44;21.00;63.80
35381;DHT22;21486;51.916;8.378;2023-05-07T13:55:21;20.90;65.20
35381;DHT22;21486;51.916;8.378;2023-05-07T13:57:53;21.00;65.10
35381;DHT22;21486;51.916;8.378;2023-05-07T14:00:19;20.90;63.90
35381;DHT22;21486;51.916;8.378;2023-05-07T14:02:45;20.80;64.20
35381;DHT22;21486;51.916;8.378;2023-05-07T14:05:10;20.80;63.60
35381;DHT22;21486;51.916;8.378;2023-05-07T14:07:36;20.50;65.00
35381;DHT22;21486;51.916;8.378;2023-05-07T14:10:02;20.70;64.20
35381;DHT22;21486;51.916;8.378;2023-05-07T14:12:28;20.60;65.00
35381;DHT22;21486;51.916;8.378;2023-05-07T14:14:53;20.70;63.80
35381;DHT22;21486;51.916;8.378;2023-05-07T14:17:19;20.50;64.20
35381;DHT22;21486;51.916;8.378;2023-05-07T14:19:45;20.60;64.10
35381;DHT22;21486;51.916;8.378;2023-05-07T14:22:12;20.60;64.40
35381;DHT22;21486;51.916;8.378;2023-05-07T14:24:38;20.60;64.20
35381;DHT22;21486;51.916;8.378;2023-05-07T14:27:05;20.60;64.70
35381;DHT22;21486;51.916;8.378;2023-05-07T14:29:31;20.70;65.00
35381;DHT22;21486;51.916;8.378;2023-05-07T14:31:56;20.80;64.20
35381;DHT22;21486;51.916;8.378;2023-05-07T14:34:22;20.70;64.20
35381;DHT22;21486;51.916;8.378;2023-05-07T14:36:47;20.50;64.10
35381;DHT22;21486;51.916;8.378;2023-05-07T14:39:13;20.60;64.20
35381;DHT22;21486;51.916;8.378;2023-05-07T14:41:38;20.30;65.50
35381;DHT22;21486;51.916;8.378;2023-05-07T14:44:04;20.30;65.70
35381;DHT22;21486;51.916;8.378;2023-05-07T14:46:30;20.20;66.10
35381;DHT22;21486;51.916;8.378;2023-05-07T14:48:56;20.10;66.10
35381;DHT22;21486;51.916;8.378;2023-05-07T14:51:22;20.10;66.30
35381;DHT22;21486;51.916;8.378;2023-05-07T14:53:50;20.20;66.60
35381;DHT22;21486;51.916;8.378;2023-05-07T14:56:16;20.40;66.00
35381;DHT22;21486;51.916;8.378;2023-05-07T14:58:42;20.50;66.00
35381;DHT22;21486;51.916;8.378;2023-05-07T15:01:08;20.50;64.50
35381;DHT22;21486;51.916;8.378;2023-05-07T15:03:34;20.40;65.40
35381;DHT22;21486;51.916;8.378;2023-05-07T15:06:00;20.40;65.30
35381;DHT22;21486;51.916;8.378;2023-05-07T15:08:25;20.40;66.30
35381;DHT22;21486;51.916;8.378;2023-05-07T15:10:51;20.10;65.60
35381;DHT22;21486;51.916;8.378;2023-05-07T15:13:17;20.00;66.10
35381;DHT22;21486;51.916;8.378;2023-05-07T15:15:44;20.20;66.30
35381;DHT22;21486;51.916;8.378;2023-05-07T15:18:09;20.30;65.40
35381;DHT22;21486;51.916;8.378;2023-05-07T15:20:36;20.40;65.50
35381;DHT22;21486;51.916;8.378;2023-05-07T15:23:01;20.30;65.30
35381;DHT22;21486;51.916;8.378;2023-05-07T15:25:28;20.10;66.10
35381;DHT22;21486;51.916;8.378;2023-05-07T15:27:53;20.00;66.60
35381;DHT22;21486;51.916;8.378;2023-05-07T15:30:19;20.00;66.30
35381;DHT22;21486;51.916;8.378;2023-05-07T15:32:46;20.10;66.20
35381;DHT22;21486;51.916;8.378;2023-05-07T15:35:11;19.90;66.70
35381;DHT22;21486;51.916;8.378;2023-05-07T15:37:37;20.00;67.10
35381;DHT22;21486;51.916;8.378;2023-05-07T15:40:03;20.00;67.10
35381;DHT22;21486;51.916;8.378;2023-05-07T15:42:30;19.80;67.00
35381;DHT22;21486;51.916;8.378;2023-05-07T15:44:55;19.80;67.70
35381;DHT22;21486;51.916;8.378;2023-05-07T15:47:21;19.80;67.50
35381;DHT22;21486;51.916;8.378;2023-05-07T15:49:47;19.70;67.90